createdAt,value
2023-03-11T00:01:18.449Z,95998.63
2023-03-11T00:04:07.281Z,95994.02
2023-03-11T00:06:49.262Z,95991.81
2023-03-11T00:09:37.287Z,95991.70
2023-03-11T00:12:19.277Z,95987.05
2023-03-11T00:15:14.301Z,95988.75
2023-03-11T00:18:02.291Z,95988.61
2023-03-11T00:20:41.398Z,95985.91
2023-03-11T00:23:29.294Z,95983.56
2023-03-11T00:26:04.422Z,95981.50
2023-03-11T00:28:52.287Z,95984.42
2023-03-11T00:31:29.209Z,95985.05
2023-03-11T00:34:17.332Z,95982.84
2023-03-11T00:36:59.329Z,95977.91
2023-03-11T00:39:54.269Z,95970.59
2023-03-11T00:42:42.298Z,95969.09
2023-03-11T00:45:17.422Z,95966.14
2023-03-11T00:48:05.285Z,95964.61
2023-03-11T00:50:42.437Z,95958.50
2023-03-11T00:53:30.272Z,95954.38
2023-03-11T00:56:11.306Z,95952.73
2023-03-11T00:58:52.714Z,95952.80
2023-03-11T01:01:40.340Z,95948.81
2023-03-11T01:04:21.297Z,95945.40
2023-03-11T01:07:02.453Z,95942.58
2023-03-11T01:09:43.365Z,95946.06
2023-03-11T01:12:25.468Z,95940.95
2023-03-11T01:15:07.362Z,95938.66
2023-03-11T01:17:55.263Z,95938.77
2023-03-11T01:20:36.298Z,95936.48
2023-03-11T01:23:25.262Z,95940.73
2023-03-11T01:26:21.293Z,95940.17
2023-03-11T01:29:16.276Z,95938.80
2023-03-11T01:32:04.252Z,95933.50
2023-03-11T01:34:46.274Z,95932.20
2023-03-11T01:37:41.259Z,95930.08
2023-03-11T01:40:42.339Z,95924.74
2023-03-11T01:43:51.575Z,95917.19
2023-03-11T01:47:01.324Z,95915.88
2023-03-11T01:49:36.459Z,95916.71
2023-03-11T01:52:31.878Z,95913.13
2023-03-11T01:55:29.278Z,95915.67
2023-03-11T01:58:19.268Z,95911.91
2023-03-11T02:01:01.397Z,95918.80
2023-03-11T02:03:50.239Z,95919.13
2023-03-11T02:06:29.393Z,95921.33
2023-03-11T02:09:17.246Z,95920.34
2023-03-11T02:11:52.390Z,95924.16
2023-03-11T02:14:41.259Z,95925.31
2023-03-11T02:17:23.251Z,95925.25
2023-03-11T02:20:46.261Z,95925.30
2023-03-11T02:23:44.265Z,95927.46
2023-03-11T02:26:34.417Z,95924.06
2023-03-11T02:29:22.403Z,95923.40
2023-03-11T02:31:57.410Z,95922.63
2023-03-11T02:34:46.275Z,95924.95
2023-03-11T02:37:23.444Z,95921.89
2023-03-11T02:40:38.272Z,95921.25
2023-03-11T02:43:15.374Z,95927.26
2023-03-11T02:46:03.286Z,95924.20
2023-03-11T02:48:38.384Z,95920.59
2023-03-11T02:51:26.271Z,95923.29
2023-03-11T02:54:04.405Z,95927.23
2023-03-11T02:56:52.249Z,95931.86
2023-03-11T02:59:27.861Z,95936.77
2023-03-11T03:02:16.242Z,95936.91
2023-03-11T03:04:58.306Z,95933.61
2023-03-11T03:07:53.257Z,95927.09
2023-03-11T03:10:41.283Z,95927.73
2023-03-11T03:13:16.443Z,95933.52
2023-03-11T03:16:04.341Z,95933.66
2023-03-11T03:18:46.277Z,95936.77
2023-03-11T03:21:34.251Z,95939.96
2023-03-11T03:24:16.283Z,95939.11
2023-03-11T03:27:04.257Z,95941.83
2023-03-11T03:29:39.380Z,95939.77
2023-03-11T03:32:27.344Z,95938.88
2023-03-11T03:35:02.403Z,95934.12
2023-03-11T03:37:57.256Z,95929.33
2023-03-11T03:40:52.270Z,95927.09
2023-03-11T03:43:40.262Z,95926.73
2023-03-11T03:46:15.474Z,95927.77
2023-03-11T03:49:03.356Z,95934.08
2023-03-11T03:51:38.389Z,95932.27
2023-03-11T03:54:26.262Z,95935.71
2023-03-11T03:57:01.388Z,95939.98
2023-03-11T03:59:49.416Z,95938.80
2023-03-11T04:02:24.491Z,95941.85
2023-03-11T04:05:13.253Z,95945.77
2023-03-11T04:07:54.242Z,95950.36
2023-03-11T04:10:49.247Z,95947.39
2023-03-11T04:13:37.245Z,95952.98
2023-03-11T04:16:13.436Z,95949.58
2023-03-11T04:19:01.255Z,95950.60
2023-03-11T04:21:36.378Z,95955.02
2023-03-11T04:24:25.304Z,95946.08
2023-03-11T04:27:00.403Z,95943.44
2023-03-11T04:29:48.249Z,95939.86
2023-03-11T04:32:30.295Z,95933.94
2023-03-11T04:35:25.320Z,95931.55
2023-03-11T04:38:20.276Z,95929.71
2023-03-11T04:41:16.231Z,95929.38
2023-03-11T04:44:06.256Z,95937.79
2023-03-11T04:46:41.370Z,95936.44
2023-03-11T04:49:29.249Z,95944.09
2023-03-11T04:52:04.388Z,95946.79
2023-03-11T04:54:52.239Z,95953.23
2023-03-11T04:57:40.236Z,95952.81
2023-03-11T05:00:15.903Z,95948.77
2023-03-11T05:03:04.264Z,95946.52
2023-03-11T05:05:38.695Z,95946.99
2023-03-11T05:08:26.254Z,95942.95
2023-03-11T05:11:00.663Z,95937.98
2023-03-11T05:13:48.247Z,95933.18
2023-03-11T05:16:22.733Z,95926.63
2023-03-11T05:19:30.233Z,95935.17
2023-03-11T05:22:05.497Z,95940.83
2023-03-11T05:24:53.234Z,95934.55
2023-03-11T05:27:34.253Z,95946.45
2023-03-11T05:30:16.361Z,95946.91
2023-03-11T05:32:57.306Z,95947.50
2023-03-11T05:35:38.485Z,95956.46
2023-03-11T05:38:20.267Z,95944.14
2023-03-11T05:41:01.436Z,95946.41
2023-03-11T05:43:43.256Z,95951.65
2023-03-11T05:46:31.306Z,95950.21
2023-03-11T05:49:05.729Z,95952.41
2023-03-11T05:51:53.245Z,95949.11
2023-03-11T05:54:41.235Z,95954.17
2023-03-11T05:57:23.231Z,95959.59
2023-03-11T06:00:20.230Z,95962.64
2023-03-11T06:03:08.338Z,95967.38
2023-03-11T06:05:43.368Z,95970.13
2023-03-11T06:08:31.317Z,95974.48
2023-03-11T06:11:17.302Z,95974.13
2023-03-11T06:14:05.335Z,95984.98
2023-03-11T06:16:40.542Z,95993.12
2023-03-11T06:19:28.268Z,95994.69
2023-03-11T06:22:10.229Z,95996.57
2023-03-11T06:25:05.267Z,95997.05
2023-03-11T06:27:58.221Z,96004.84
2023-03-11T06:30:39.346Z,96004.31
2023-03-11T06:33:21.232Z,96013.26
2023-03-11T06:36:06.436Z,96016.35
2023-03-11T06:38:47.276Z,96021.53
2023-03-11T06:41:35.232Z,96021.42
2023-03-11T06:44:11.172Z,96026.02
2023-03-11T06:46:59.228Z,96026.33
2023-03-11T06:49:40.226Z,96030.11
2023-03-11T06:52:28.342Z,96033.14
2023-03-11T06:55:03.905Z,96035.77
2023-03-11T06:57:57.653Z,96043.30
2023-03-11T07:00:37.564Z,96054.36
2023-03-11T07:03:28.461Z,96059.67
2023-03-11T07:06:08.068Z,96058.92
2023-03-11T07:09:04.895Z,96065.23
2023-03-11T07:11:41.985Z,96068.71
2023-03-11T07:14:32.235Z,96064.87
2023-03-11T07:17:06.774Z,96068.63
2023-03-11T07:20:09.617Z,96076.31
2023-03-11T07:22:56.999Z,96076.73
2023-03-11T07:25:46.832Z,96078.09
2023-03-11T07:28:35.020Z,96107.13
2023-03-11T07:31:39.824Z,96109.67
2023-03-11T07:34:32.234Z,96137.20
2023-03-11T07:37:34.548Z,96139.63
2023-03-11T07:40:32.979Z,96130.40
2023-03-11T07:43:18.992Z,96132.89
2023-03-11T07:46:20.583Z,96138.02
2023-03-11T07:49:14.031Z,96136.43
2023-03-11T07:51:51.617Z,96132.85
2023-03-11T07:54:45.550Z,96145.23
2023-03-11T07:57:57.280Z,96137.95
2023-03-11T08:00:41.567Z,96135.18
2023-03-11T08:03:29.840Z,96135.88
2023-03-11T08:06:25.940Z,96137.56
2023-03-11T08:09:15.285Z,96137.95
2023-03-11T08:12:06.598Z,96144.89
2023-03-11T08:14:53.836Z,96140.95
2023-03-11T08:17:44.273Z,96153.65
2023-03-11T08:20:33.489Z,96162.59
2023-03-11T08:23:21.254Z,96174.92
2023-03-11T08:26:18.820Z,96188.54
2023-03-11T08:29:08.209Z,96185.52
2023-03-11T08:32:17.620Z,96187.52
2023-03-11T08:35:17.240Z,96191.67
2023-03-11T08:37:58.911Z,96193.27
2023-03-11T08:41:01.609Z,96197.89
2023-03-11T08:43:43.577Z,96196.68
2023-03-11T08:46:39.197Z,96205.92
2023-03-11T08:49:20.599Z,96205.87
2023-03-11T08:52:13.758Z,96208.83
2023-03-11T08:55:06.991Z,96226.27
2023-03-11T08:58:08.186Z,96225.91
2023-03-11T09:00:46.566Z,96218.25
2023-03-11T09:03:43.858Z,96221.60
2023-03-11T09:06:32.294Z,96225.92
2023-03-11T09:09:35.085Z,96224.77
2023-03-11T09:12:20.096Z,96223.86
2023-03-11T09:15:21.446Z,96230.52
2023-03-11T09:18:04.521Z,96237.78
2023-03-11T09:21:00.092Z,96237.83
2023-03-11T09:23:46.022Z,96247.27
2023-03-11T09:26:43.329Z,96248.45
2023-03-11T09:29:30.586Z,96255.52
2023-03-11T09:32:25.518Z,96256.83
2023-03-11T09:35:14.661Z,96257.07
2023-03-11T09:38:09.798Z,96274.30
2023-03-11T09:41:23.637Z,96266.67
2023-03-11T09:44:44.624Z,96285.86
2023-03-11T09:47:34.601Z,96283.04
2023-03-11T09:50:41.829Z,96285.61
2023-03-11T09:53:35.209Z,96285.19
2023-03-11T09:56:30.680Z,96298.98
2023-03-11T09:59:33.834Z,96296.38
2023-03-11T10:02:45.348Z,96304.88
2023-03-11T10:05:39.085Z,96300.86
2023-03-11T10:12:03.277Z,96301.45
2023-03-11T10:15:39.658Z,96306.56
2023-03-11T10:18:33.212Z,96318.29
2023-03-11T10:21:49.205Z,96312.00
2023-03-11T10:24:53.307Z,96328.34
2023-03-11T10:28:03.201Z,96329.40
2023-03-11T10:30:43.308Z,96320.75
2023-03-11T10:33:54.209Z,96324.86
2023-03-11T10:36:55.351Z,96326.35
2023-03-11T10:39:43.210Z,96326.13
2023-03-11T10:42:32.226Z,96331.02
2023-03-11T10:45:21.186Z,96348.17
2023-03-11T10:47:58.819Z,96340.31
2023-03-11T10:51:25.289Z,96351.09
2023-03-11T10:54:09.231Z,96359.84
2023-03-11T10:57:13.284Z,96360.90
2023-03-11T11:00:27.004Z,96368.20
2023-03-11T11:03:14.534Z,96373.65
2023-03-11T11:06:17.709Z,96371.46
2023-03-11T11:09:30.751Z,96372.85
2023-03-11T11:12:22.585Z,96379.13
2023-03-11T11:15:54.800Z,96386.55
2023-03-11T11:19:02.864Z,96388.98
2023-03-11T11:22:04.583Z,96396.29
2023-03-11T11:25:01.095Z,96406.34
2023-03-11T11:27:45.763Z,96415.05
2023-03-11T11:30:47.322Z,96413.79
2023-03-11T11:33:34.360Z,96412.36
2023-03-11T11:36:37.126Z,96415.33
2023-03-11T11:39:40.461Z,96417.80
2023-03-11T11:43:17.659Z,96426.48
2023-03-11T11:46:39.053Z,96432.34
2023-03-11T11:49:48.802Z,96432.63
2023-03-11T11:53:29.526Z,96433.60
2023-03-11T11:56:30.299Z,96443.88
2023-03-11T11:59:32.956Z,96451.42
2023-03-11T12:02:11.288Z,96458.24
2023-03-11T12:05:22.232Z,96454.84
2023-03-11T12:08:15.873Z,96469.15
2023-03-11T12:11:05.184Z,96476.88
2023-03-11T12:14:00.659Z,96483.51
2023-03-11T12:17:10.155Z,96495.27
2023-03-11T12:20:19.158Z,96500.42
2023-03-11T12:23:29.170Z,96501.88
2023-03-11T12:26:31.180Z,96515.35
2023-03-11T12:29:26.172Z,96521.94
2023-03-11T12:32:21.214Z,96534.59
2023-03-11T12:35:32.202Z,96546.85
2023-03-11T12:38:13.459Z,96555.41
2023-03-11T12:41:13.173Z,96559.40
2023-03-11T12:43:47.499Z,96569.77
2023-03-11T12:47:01.350Z,96574.54
2023-03-11T12:49:39.375Z,96584.80
2023-03-11T12:52:36.169Z,96600.01
2023-03-11T12:55:10.844Z,96603.60
2023-03-11T12:58:08.182Z,96609.39
2023-03-11T13:00:58.293Z,96630.17
2023-03-11T13:03:56.166Z,96639.02
2023-03-11T13:07:28.305Z,96649.80
2023-03-11T13:10:20.202Z,96664.69
2023-03-11T13:12:58.297Z,96666.83
2023-03-11T13:15:48.164Z,96671.80
2023-03-11T13:18:33.109Z,96687.69
2023-03-11T13:21:39.171Z,96696.48
2023-03-11T13:24:26.310Z,96710.10
2023-03-11T13:27:27.460Z,96702.83
2023-03-11T13:30:27.527Z,96713.86
2023-03-11T13:33:38.160Z,96731.13
2023-03-11T13:36:31.313Z,96748.09
2023-03-11T13:39:29.265Z,96748.83
2023-03-11T13:42:35.430Z,96765.00
2023-03-11T13:45:43.275Z,96766.52
2023-03-11T13:48:28.506Z,96768.02
2023-03-11T13:51:30.372Z,96783.23
2023-03-11T13:54:20.485Z,96791.89
2023-03-11T13:57:05.168Z,96797.48
2023-03-11T13:59:46.293Z,96798.52
2023-03-11T14:02:30.175Z,96800.54
2023-03-11T14:05:13.288Z,96817.52
2023-03-11T14:07:54.165Z,96821.98
2023-03-11T14:10:44.179Z,96831.00
2023-03-11T14:13:19.803Z,96843.33
2023-03-11T14:16:24.171Z,96849.16
2023-03-11T14:19:15.586Z,96857.27
2023-03-11T14:22:05.174Z,96862.44
2023-03-11T14:24:47.274Z,96867.86
2023-03-11T14:27:28.369Z,96888.48
2023-03-11T14:30:14.756Z,96889.61
2023-03-11T14:33:15.448Z,96886.52
2023-03-11T14:36:06.065Z,96897.88
2023-03-11T14:39:01.144Z,96901.98
2023-03-11T14:41:49.162Z,96925.31
2023-03-11T14:44:24.331Z,96927.48
2023-03-11T14:47:46.389Z,96926.46
2023-03-11T14:50:48.135Z,96936.22
2023-03-11T14:53:39.936Z,96944.96
2023-03-11T14:56:32.153Z,96965.51
2023-03-11T14:59:23.226Z,96955.10
2023-03-11T15:02:07.266Z,96968.09
2023-03-11T15:04:52.153Z,96978.19
2023-03-11T15:07:34.700Z,96977.58
2023-03-11T15:10:18.129Z,96986.80
2023-03-11T15:13:12.340Z,96997.34
2023-03-11T15:16:05.171Z,97020.96
2023-03-11T15:18:46.259Z,97028.02
2023-03-11T15:21:30.142Z,97031.05
2023-03-11T15:24:19.297Z,97039.71
2023-03-11T15:27:10.354Z,97041.23
2023-03-11T15:30:08.181Z,97045.24
2023-03-11T15:32:45.585Z,97053.04
2023-03-11T15:35:35.176Z,97053.83
2023-03-11T15:38:28.681Z,97051.23
2023-03-11T15:41:16.143Z,97066.04
2023-03-11T15:43:57.133Z,97079.87
2023-03-11T15:46:45.137Z,97082.95
2023-03-11T15:49:27.134Z,97082.75
2023-03-11T15:52:16.158Z,97095.40
2023-03-11T15:54:58.141Z,97102.62
2023-03-11T15:57:39.526Z,97110.13
2023-03-11T16:00:29.136Z,97122.87
2023-03-11T16:03:18.142Z,97123.58
2023-03-11T16:05:52.546Z,97129.41
2023-03-11T16:08:40.137Z,97140.06
2023-03-11T16:11:22.119Z,97146.00
2023-03-11T16:14:03.260Z,97154.23
2023-03-11T16:16:45.124Z,97150.12
2023-03-11T16:19:26.267Z,97155.08
2023-03-11T16:22:08.211Z,97161.70
2023-03-11T16:24:56.147Z,97164.17
2023-03-11T16:27:38.261Z,97177.08
2023-03-11T16:30:27.129Z,97184.74
2023-03-11T16:33:04.331Z,97188.54
2023-03-11T16:35:53.290Z,97192.13
2023-03-11T16:38:29.360Z,97200.91
2023-03-11T16:41:17.250Z,97207.89
2023-03-11T16:44:00.519Z,97214.52
2023-03-11T16:46:57.156Z,97220.44
2023-03-11T16:49:38.134Z,97229.17
2023-03-11T16:52:21.015Z,97224.94
2023-03-11T16:55:04.106Z,97229.66
2023-03-11T16:57:47.006Z,97235.55
2023-03-11T17:00:28.135Z,97245.45
2023-03-11T17:03:09.431Z,97250.14
2023-03-11T17:05:51.133Z,97258.59
2023-03-11T17:08:32.284Z,97264.59
2023-03-11T17:11:13.129Z,97268.34
2023-03-11T17:13:56.686Z,97274.13
2023-03-11T17:16:42.209Z,97283.52
2023-03-11T17:19:24.443Z,97286.70
2023-03-11T17:22:06.106Z,97290.05
2023-03-11T17:24:47.272Z,97296.16
2023-03-11T17:27:29.231Z,97300.15
2023-03-11T17:30:14.884Z,97304.91
2023-03-11T17:32:57.276Z,97304.06
2023-03-11T17:35:38.350Z,97308.98
2023-03-11T17:38:19.116Z,97311.82
2023-03-11T17:41:20.105Z,97318.23
2023-03-11T17:44:08.165Z,97314.83
2023-03-11T17:46:56.279Z,97324.53
2023-03-11T17:49:30.533Z,97330.60
2023-03-11T17:52:20.120Z,97351.30
2023-03-11T17:55:16.102Z,97343.52
2023-03-11T17:58:04.114Z,97358.47
2023-03-11T18:00:39.241Z,97351.66
2023-03-11T18:03:28.653Z,97362.99
2023-03-11T18:06:09.250Z,97363.27
2023-03-11T18:08:57.113Z,97373.16
2023-03-11T18:11:34.269Z,97387.30
2023-03-11T18:14:22.087Z,97391.87
2023-03-11T18:17:04.226Z,97396.63
2023-03-11T18:19:59.096Z,97406.48
2023-03-11T18:22:52.109Z,97414.83
2023-03-11T18:25:27.249Z,97427.02
2023-03-11T18:28:19.339Z,97431.48
2023-03-11T18:30:54.258Z,97446.60
2023-03-11T18:33:42.103Z,97434.75
2023-03-11T18:36:22.301Z,97443.09
2023-03-11T18:39:11.119Z,97445.86
2023-03-11T18:42:06.167Z,97454.09
2023-03-11T18:44:54.312Z,97459.43
2023-03-11T18:47:36.408Z,97472.56
2023-03-11T18:50:28.110Z,97477.59
2023-03-11T18:53:09.214Z,97483.39
2023-03-11T18:55:50.101Z,97482.80
2023-03-11T18:58:32.223Z,97494.89
2023-03-11T19:01:27.260Z,97499.06
2023-03-11T19:04:15.096Z,97500.84
2023-03-11T19:06:50.421Z,97503.06
2023-03-11T19:09:39.196Z,97513.85
2023-03-11T19:12:14.537Z,97521.47
2023-03-11T19:15:03.121Z,97526.13
2023-03-11T19:17:51.698Z,97530.75
2023-03-11T19:20:35.486Z,97534.55
2023-03-11T19:23:18.111Z,97544.09
2023-03-11T19:26:06.124Z,97551.15
2023-03-11T19:28:40.583Z,97559.45
2023-03-11T19:31:28.112Z,97570.11
2023-03-11T19:34:03.655Z,97573.06
2023-03-11T19:36:53.101Z,97584.48
2023-03-11T19:39:45.104Z,97584.95
2023-03-11T19:42:36.338Z,97589.84
2023-03-11T19:45:12.875Z,97589.31
2023-03-11T19:48:03.774Z,97592.33
2023-03-11T19:50:54.182Z,97599.52
2023-03-11T19:53:44.110Z,97608.56
2023-03-11T19:56:19.219Z,97610.77
2023-03-11T19:59:07.087Z,97617.61
2023-03-11T20:01:52.122Z,97618.59
2023-03-11T20:04:47.163Z,97623.83
2023-03-11T20:07:35.261Z,97626.63
2023-03-11T20:10:11.305Z,97630.20
2023-03-11T20:13:02.350Z,97635.21
2023-03-11T20:15:38.431Z,97629.33
2023-03-11T20:18:26.078Z,97636.04
2023-03-11T20:21:00.282Z,97640.63
2023-03-11T20:23:50.079Z,97650.42
2023-03-11T20:26:34.158Z,97651.89
2023-03-11T20:29:31.946Z,97652.52
2023-03-11T20:32:23.388Z,97659.96
2023-03-11T20:35:06.135Z,97666.66
2023-03-11T20:37:55.095Z,97662.73
2023-03-11T20:40:38.187Z,97666.11
2023-03-11T20:43:31.737Z,97666.49
2023-03-11T20:46:10.385Z,97662.95
2023-03-11T20:49:03.237Z,97668.75
2023-03-11T20:51:50.507Z,97672.36
2023-03-11T20:54:46.498Z,97675.98
2023-03-11T20:57:34.676Z,97679.93
2023-03-11T21:00:18.458Z,97688.38
2023-03-11T21:03:00.160Z,97685.55
2023-03-11T21:05:45.873Z,97690.20
2023-03-11T21:08:27.093Z,97688.32
2023-03-11T21:11:16.164Z,97687.66
2023-03-11T21:13:52.070Z,97689.14
2023-03-11T21:16:40.186Z,97691.00
2023-03-11T21:19:14.943Z,97690.35
2023-03-11T21:22:03.061Z,97692.67
2023-03-11T21:24:39.349Z,97692.06
2023-03-11T21:27:33.075Z,97691.32
2023-03-11T21:30:08.761Z,97696.02
2023-03-11T21:32:58.123Z,97704.04
2023-03-11T21:35:32.518Z,97702.34
2023-03-11T21:38:20.361Z,97705.13
2023-03-11T21:41:20.266Z,97710.63
2023-03-11T21:44:10.530Z,97713.86
2023-03-11T21:46:52.425Z,97715.23
2023-03-11T21:49:33.358Z,97721.15
2023-03-11T21:52:15.110Z,97718.33
2023-03-11T21:55:04.088Z,97718.59
2023-03-11T21:57:38.504Z,97719.05
2023-03-11T22:00:27.109Z,97716.74
2023-03-11T22:03:08.057Z,97720.88
2023-03-11T22:05:56.366Z,97727.13
2023-03-11T22:08:38.187Z,97727.85
2023-03-11T22:11:22.373Z,97724.77
2023-03-11T22:14:07.239Z,97731.73
2023-03-11T22:16:55.302Z,97736.58
2023-03-11T22:19:50.282Z,97734.53
2023-03-11T22:22:36.289Z,97737.45
2023-03-11T22:25:17.037Z,97734.73
2023-03-11T22:28:05.243Z,97733.65
2023-03-11T22:30:41.455Z,97738.91
2023-03-11T22:33:31.251Z,97741.18
2023-03-11T22:36:07.954Z,97741.64
2023-03-11T22:38:56.066Z,97742.30
2023-03-11T22:41:31.000Z,97747.34
2023-03-11T22:44:19.081Z,97747.98
2023-03-11T22:46:53.459Z,97746.80
2023-03-11T22:49:41.067Z,97752.93
2023-03-11T22:52:16.260Z,97755.20
2023-03-11T22:55:04.158Z,97756.88
2023-03-11T22:57:39.164Z,97758.98
2023-03-11T23:00:31.215Z,97766.70
2023-03-11T23:03:05.797Z,97765.91
2023-03-11T23:05:54.063Z,97769.10
2023-03-11T23:08:35.081Z,97767.83
2023-03-11T23:11:18.241Z,97772.77
2023-03-11T23:13:59.033Z,97774.21
2023-03-11T23:16:41.640Z,97773.41
2023-03-11T23:19:23.057Z,97776.52
2023-03-11T23:22:05.458Z,97777.45
2023-03-11T23:24:48.100Z,97780.20
2023-03-11T23:27:29.151Z,97780.96
2023-03-11T23:30:10.228Z,97784.75
2023-03-11T23:32:52.198Z,97788.99
2023-03-11T23:35:33.151Z,97786.12
2023-03-11T23:38:22.040Z,97790.40
2023-03-11T23:41:03.083Z,97795.57
2023-03-11T23:43:44.173Z,97801.11
2023-03-11T23:46:25.066Z,97801.14
2023-03-11T23:49:13.048Z,97800.92
2023-03-11T23:51:47.443Z,97800.02
2023-03-11T23:54:35.046Z,97799.51
2023-03-11T23:57:09.454Z,97803.70
2023-03-11T23:59:58.224Z,97804.71
